Terminal Aerodrome Forecast
Issued by NWS Milwaukee/Sullivan, WI

Home | Current Version | Previous Version | Text Only | Print | Product List | Glossary On
Versions: 1 2 3 4 5 6 7 8 9 10 11 12 13 14 15 16 17 18 19 20 21 22 23 24 25 26 27 28 29 30 31 32 33 34 35
000
FTUS43 KMKX 230537
TAFMSN
TAF
KMSN 230537Z 2306/2406 33005KT 3SM BR OVC003
     FM230900 33005KT 1SM BR OVC002
     FM231600 33005KT 4SM BR OVC003
     FM231800 33006KT P6SM BKN005
     FM232100 32006KT P6SM BKN008
     FM240300 VRB03KT 3SM BR OVC007
     FM240500 00000KT 2SM BR OVC005=

USA.gov is the U.S. government's official web portal to all federal, state and local government web resources and services.